Time;durP1;ratioP1;P1;durP2;ratioP2;P2;SDS_P1;SDS_P2;PMS_P1;PMS_P2;Temp;Humidity;BMP_temperature;BMP_pressure;BME280_temperature;BME280_humidity;BME280_pressure;Samples;Min_cycle;Max_cycle;Signal;HPM_P1;HPM_P2
2023/01/27 00:00:27;;;;;;;;;;;;;;;12.60;69.01;102256.84;1255388;23;641;-75
2023/01/27 00:01:17;;;;;;;;;;;;;;;12.60;69.45;102253.31;1253803;23;631;-76
2023/01/27 00:02:08;;;;;;;;;;;;;;;12.58;69.17;102258.75;1255402;23;717;-76
2023/01/27 00:02:58;;;;;;;;;;;;;;;12.59;69.93;102251.59;1253617;23;606;-75
2023/01/27 00:03:49;;;;;;;;;;;;;;;12.55;69.95;102258.88;1253844;23;677;-75
2023/01/27 00:04:39;;;;;;;;;;;;;;;12.56;69.97;102252.59;1255124;23;676;-75
2023/01/27 00:05:29;;;;;;;;;;;;;;;12.58;69.78;102255.19;1255103;23;591;-75
2023/01/27 00:06:20;;;;;;;;;;;;;;;12.59;69.11;102256.94;1254698;23;611;-75
2023/01/27 00:07:10;;;;;;;;;;;;;;;12.57;69.93;102246.31;1253579;23;655;-75
2023/01/27 00:08:01;;;;;;;;;;;;;;;12.55;69.67;102253.53;1255467;23;681;-75
2023/01/27 00:08:51;;;;;;;;;;;;;;;12.56;70.12;102249.06;1253633;23;808;-76
2023/01/27 00:09:42;;;;;;;;;;;;;;;12.55;69.86;102256.22;1253744;23;631;-76
2023/01/27 00:10:32;;;;;;;;;;;;;;;12.57;69.19;102248.97;1253423;23;733;-76
2023/01/27 00:13:41;;;;;;;;;;;;;;;12.59;69.91;102249.78;1255479;23;616;-75
2023/01/27 00:14:31;;;;;;;;;;;;;;;12.57;69.18;102245.44;1253634;23;602;-75
2023/01/27 00:15:22;;;;;;;;;;;;;;;12.59;69.72;102246.22;1255400;23;634;-76
2023/01/27 00:16:12;;;;;;;;;;;;;;;12.55;69.11;102245.53;1253610;23;643;-77
2023/01/27 00:17:03;;;;;;;;;;;;;;;12.55;69.94;102241.97;1254826;23;590;-77
2023/01/27 00:17:53;;;;;;;;;;;;;;;12.54;70.05;102243.78;1253913;23;643;-77
2023/01/27 00:18:43;;;;;;;;;;;;;;;12.57;69.27;102240.97;1255494;23;610;-77
2023/01/27 00:19:34;;;;;;;;;;;;;;;12.54;69.59;102240.28;1253824;23;596;-77
2023/01/27 00:25:01;;;;;;;;;;;;;;;12.54;69.30;102241.13;1255382;23;611;-77
2023/01/27 00:25:57;;;;;;;;;;;;;;;12.54;69.23;102234.94;1255353;23;614;-77
2023/01/27 00:26:48;;;;;;;;;;;;;;;12.54;69.21;102245.63;1255431;23;738;-76
2023/01/27 00:27:38;;;;;;;;;;;;;;;12.52;69.37;102240.34;1253902;23;658;-76
2023/01/27 00:28:30;;;;;;;;;;;;;;;12.51;69.90;102242.16;1253728;23;587;-75
2023/01/27 00:29:20;;;;;;;;;;;;;;;12.52;69.16;102237.69;1255299;23;700;-74
2023/01/27 00:30:11;;;;;;;;;;;;;;;12.52;69.90;102243.03;1255422;23;622;-74
2023/01/27 00:31:01;;;;;;;;;;;;;;;12.52;69.61;102248.38;1255405;23;642;-74
2023/01/27 00:34:09;;;;;;;;;;;;;;;12.52;69.79;102243.03;1255389;23;941;-75
2023/01/27 00:35:00;;;;;;;;;;;;;;;12.53;69.96;102242.09;1253748;23;704;-74
2023/01/27 00:35:50;;;;;;;;;;;;;;;12.50;70.03;102242.25;1253595;23;627;-74
2023/01/27 00:36:41;;;;;;;;;;;;;;;12.51;69.19;102246.66;1254479;23;610;-74
2023/01/27 00:37:31;;;;;;;;;;;;;;;12.51;69.06;102246.66;1254608;23;657;-75
2023/01/27 00:38:21;;;;;;;;;;;;;;;12.52;69.17;102243.03;1254511;23;614;-75
2023/01/27 00:39:12;;;;;;;;;;;;;;;12.52;69.41;102237.69;1254669;23;622;-74
2023/01/27 00:40:02;;;;;;;;;;;;;;;12.52;69.62;102235.00;1254445;23;626;-74
2023/01/27 00:42:02;;;;;;;;;;;;;;;12.53;69.85;102244.75;1255289;23;795;-74
2023/01/27 00:42:52;;;;;;;;;;;;;;;12.54;69.80;102250.97;1254469;23;622;-74
2023/01/27 00:43:43;;;;;;;;;;;;;;;12.52;69.02;102246.56;1254383;23;1951;-75
2023/01/27 00:44:33;;;;;;;;;;;;;;;12.52;68.97;102243.91;1254654;23;614;-76
2023/01/27 00:46:33;;;;;;;;;;;;;;;12.52;69.03;102253.72;1255387;23;618;-76
2023/01/27 00:47:23;;;;;;;;;;;;;;;12.52;69.70;102253.72;1254498;23;595;-76
2023/01/27 00:48:14;;;;;;;;;;;;;;;12.53;69.28;102252.78;1254564;23;622;-76
2023/01/27 00:49:04;;;;;;;;;;;;;;;12.51;70.01;102252.84;1254472;23;643;-76
2023/01/27 00:49:55;;;;;;;;;;;;;;;12.51;69.85;102262.69;1254523;23;634;-76
2023/01/27 00:50:45;;;;;;;;;;;;;;;12.50;69.23;102256.47;1254393;23;732;-76
2023/01/27 00:51:36;;;;;;;;;;;;;;;12.51;69.19;102262.69;1254601;23;641;-76
2023/01/27 00:52:26;;;;;;;;;;;;;;;12.51;69.46;102257.34;1254379;23;740;-77
2023/01/27 00:53:16;;;;;;;;;;;;;;;12.50;69.53;102252.94;1254320;23;649;-76
2023/01/27 00:54:07;;;;;;;;;;;;;;;12.52;69.45;102254.59;1254644;23;579;-76
2023/01/27 00:54:57;;;;;;;;;;;;;;;12.52;69.78;102251.91;1252702;23;583;-75
2023/01/27 00:55:48;;;;;;;;;;;;;;;12.51;69.21;102252.00;1254588;23;693;-76
2023/01/27 00:56:38;;;;;;;;;;;;;;;12.48;70.14;102261.03;1254563;23;631;-76
2023/01/27 00:57:29;;;;;;;;;;;;;;;12.50;69.34;102260.94;1254528;23;677;-76
2023/01/27 00:58:21;;;;;;;;;;;;;;;12.50;69.11;102260.94;1254421;23;650;-75
2023/01/27 00:59:11;;;;;;;;;;;;;;;12.50;69.11;102266.31;1254337;23;610;-75
2023/01/27 01:00:02;;;;;;;;;;;;;;;12.49;69.67;102261.91;1254579;23;670;-75
2023/01/27 01:00:52;;;;;;;;;;;;;;;12.49;69.96;102260.09;1254716;23;626;-75
2023/01/27 01:01:42;;;;;;;;;;;;;;;12.49;70.06;102270.78;1254542;23;647;-76
2023/01/27 01:02:33;;;;;;;;;;;;;;;12.47;69.95;102264.66;1254547;23;635;-76
2023/01/27 01:03:23;;;;;;;;;;;;;;;12.49;69.32;102268.09;1254324;23;1935;-76
2023/01/27 01:04:14;;;;;;;;;;;;;;;12.48;69.42;102262.84;1254442;23;650;-76
2023/01/27 01:05:04;;;;;;;;;;;;;;;12.52;69.82;102264.41;1254445;23;610;-76
2023/01/27 01:05:54;;;;;;;;;;;;;;;12.51;69.88;102257.34;1252844;23;635;-75
2023/01/27 01:06:45;;;;;;;;;;;;;;;12.52;69.70;102261.75;1254560;23;606;-76
2023/01/27 01:07:35;;;;;;;;;;;;;;;12.51;70.01;102268.91;1253069;23;682;-75
2023/01/27 01:08:26;;;;;;;;;;;;;;;12.52;69.30;102264.41;1253272;23;712;-75
2023/01/27 01:09:16;;;;;;;;;;;;;;;12.51;69.19;102260.00;1254526;23;669;-78
2023/01/27 01:10:07;;;;;;;;;;;;;;;12.51;69.14;102257.34;1253269;23;598;-76
2023/01/27 01:10:57;;;;;;;;;;;;;;;12.52;70.01;102259.06;1254945;23;634;-77
2023/01/27 01:11:47;;;;;;;;;;;;;;;12.50;69.42;102260.94;1255301;23;662;-77
2023/01/27 01:12:38;;;;;;;;;;;;;;;12.49;70.14;102262.75;1254569;23;588;-77
2023/01/27 01:13:28;;;;;;;;;;;;;;;12.50;69.51;102266.31;1253094;23;748;-77
2023/01/27 01:14:19;;;;;;;;;;;;;;;12.50;69.09;102266.31;1253450;23;661;-75
2023/01/27 01:15:09;;;;;;;;;;;;;;;12.49;69.48;102269.91;1254725;23;610;-75
2023/01/27 01:16:00;;;;;;;;;;;;;;;12.48;69.95;102270.84;1254477;23;611;-75
2023/01/27 01:16:50;;;;;;;;;;;;;;;12.48;69.63;102273.53;1254512;23;666;-76
2023/01/27 01:17:40;;;;;;;;;;;;;;;12.47;69.90;102274.47;1254508;23;642;-76
2023/01/27 01:18:31;;;;;;;;;;;;;;;12.46;69.11;102272.75;1252980;23;630;-76
2023/01/27 01:19:21;;;;;;;;;;;;;;;12.45;69.32;102274.53;1254385;23;608;-76
2023/01/27 01:20:12;;;;;;;;;;;;;;;12.46;69.21;102275.41;1254532;23;688;-76
2023/01/27 01:21:02;;;;;;;;;;;;;;;12.45;69.58;102265.66;1252535;23;622;-76
2023/01/27 01:21:53;;;;;;;;;;;;;;;12.46;69.62;102275.41;1254539;23;610;-76
2023/01/27 01:22:43;;;;;;;;;;;;;;;12.47;70.09;102272.66;1253232;23;630;-76
2023/01/27 01:23:33;;;;;;;;;;;;;;;12.45;69.90;102271.88;1254277;23;1927;-76
2023/01/27 01:24:24;;;;;;;;;;;;;;;12.45;69.53;102268.34;1254456;23;638;-76
2023/01/27 01:25:15;;;;;;;;;;;;;;;12.45;69.80;102274.53;1252917;23;654;-75
2023/01/27 01:26:05;;;;;;;;;;;;;;;12.43;69.49;102280.91;1254424;23;755;-75
2023/01/27 01:26:56;;;;;;;;;;;;;;;12.43;69.62;102270.22;1254562;23;614;-75
2023/01/27 01:27:46;;;;;;;;;;;;;;;12.43;69.72;102272.88;1254629;23;610;-76
2023/01/27 01:28:36;;;;;;;;;;;;;;;12.45;69.95;102269.19;1254431;23;594;-76
2023/01/27 01:29:27;;;;;;;;;;;;;;;12.44;70.00;102272.81;1253968;23;685;-76
2023/01/27 01:30:17;;;;;;;;;;;;;;;12.43;69.14;102273.75;1254417;23;682;-75
2023/01/27 01:31:08;;;;;;;;;;;;;;;12.44;69.30;102277.28;1254559;23;661;-76
2023/01/27 01:31:58;;;;;;;;;;;;;;;12.45;69.58;102273.69;1254662;23;610;-75
2023/01/27 01:32:49;;;;;;;;;;;;;;;12.44;69.41;102278.16;1254495;23;610;-76
2023/01/27 01:33:39;;;;;;;;;;;;;;;12.44;69.62;102277.28;1254580;23;626;-76
2023/01/27 01:34:29;;;;;;;;;;;;;;;12.44;69.30;102277.28;1254351;23;630;-76
2023/01/27 01:35:20;;;;;;;;;;;;;;;12.45;70.05;102279.03;1257077;23;1127;-75
2023/01/27 01:36:10;;;;;;;;;;;;;;;12.43;69.12;102280.91;1259482;23;618;-76
2023/01/27 01:37:01;;;;;;;;;;;;;;;12.43;69.16;102271.06;1259533;23;623;-75
2023/01/27 01:37:51;;;;;;;;;;;;;;;12.41;70.13;102272.97;1259820;23;706;-76
2023/01/27 01:38:42;;;;;;;;;;;;;;;12.42;70.18;102271.16;1259547;23;619;-76
2023/01/27 01:39:32;;;;;;;;;;;;;;;12.42;69.19;102285.38;1259753;23;606;-76
2023/01/27 01:40:24;;;;;;;;;;;;;;;12.43;69.79;102279.09;1261153;23;619;-75
2023/01/27 01:41:14;;;;;;;;;;;;;;;12.44;69.03;102274.63;1261252;23;642;-75
2023/01/27 01:42:04;;;;;;;;;;;;;;;12.44;69.64;102277.28;1261178;23;653;-75
2023/01/27 01:42:55;;;;;;;;;;;;;;;12.42;69.57;102280.03;1259612;23;619;-76
2023/01/27 01:43:45;;;;;;;;;;;;;;;12.42;69.71;102274.69;1258798;23;1946;-76
2023/01/27 01:44:36;;;;;;;;;;;;;;;12.41;69.86;102283.66;1259598;23;673;-75
2023/01/27 01:45:27;;;;;;;;;;;;;;;12.41;69.58;102272.97;1261628;23;594;-76
2023/01/27 01:46:17;;;;;;;;;;;;;;;12.41;69.46;102278.31;1259988;23;630;-75
2023/01/27 01:47:07;;;;;;;;;;;;;;;12.42;70.04;102281.84;1259869;23;666;-76
2023/01/27 01:47:58;;;;;;;;;;;;;;;12.41;69.81;102285.47;1259996;23;731;-75
2023/01/27 01:48:48;;;;;;;;;;;;;;;12.41;69.96;102282.78;1259777;23;662;-75
2023/01/27 01:49:39;;;;;;;;;;;;;;;12.41;69.11;102286.31;1261512;23;598;-76
2023/01/27 01:50:29;;;;;;;;;;;;;;;12.42;69.59;102280.03;1260201;23;655;-76
2023/01/27 01:51:19;;;;;;;;;;;;;;;12.40;69.59;102281.91;1261581;23;774;-76
2023/01/27 01:52:10;;;;;;;;;;;;;;;12.41;69.19;102285.47;1260040;23;627;-76
2023/01/27 01:53:00;;;;;;;;;;;;;;;12.42;69.65;102284.53;1259769;23;630;-76
2023/01/27 01:53:51;;;;;;;;;;;;;;;12.42;69.25;102282.72;1259959;23;598;-76
2023/01/27 01:54:41;;;;;;;;;;;;;;;12.40;69.83;102289.94;1259478;23;685;-76
2023/01/27 01:55:32;;;;;;;;;;;;;;;12.41;69.64;102283.66;1259744;23;603;-76
2023/01/27 01:56:22;;;;;;;;;;;;;;;12.41;69.77;102285.47;1260045;23;627;-76
2023/01/27 01:57:12;;;;;;;;;;;;;;;12.40;69.36;102283.72;1259774;23;630;-76
2023/01/27 01:58:03;;;;;;;;;;;;;;;12.39;69.68;102279.31;1260025;23;599;-76
2023/01/27 01:58:53;;;;;;;;;;;;;;;12.38;69.32;102283.78;1259682;23;609;-76
2023/01/27 01:59:44;;;;;;;;;;;;;;;12.40;69.25;102286.41;1259931;23;610;-76
2023/01/27 02:00:34;;;;;;;;;;;;;;;12.38;69.46;102282.94;1260058;23;622;-74
2023/01/27 02:01:25;;;;;;;;;;;;;;;12.41;69.64;102282.78;1259906;23;630;-74
2023/01/27 02:02:15;;;;;;;;;;;;;;;12.42;69.33;102279.16;1259961;23;627;-75
2023/01/27 02:03:05;;;;;;;;;;;;;;;12.44;69.15;102286.19;1261581;23;618;-75
2023/01/27 02:03:56;;;;;;;;;;;;;;;12.44;69.49;102285.31;1261580;23;645;-75
2023/01/27 02:04:46;;;;;;;;;;;;;;;12.43;69.61;102287.13;1259696;23;599;-75
2023/01/27 02:05:37;;;;;;;;;;;;;;;12.42;70.16;102287.19;1255381;23;598;-75
2023/01/27 02:06:27;;;;;;;;;;;;;;;12.44;69.12;102288.84;1255313;23;598;-76
2023/01/27 02:07:18;;;;;;;;;;;;;;;12.43;69.87;102291.59;1260616;23;630;-76
2023/01/27 02:08:08;;;;;;;;;;;;;;;12.43;69.30;102287.13;1261660;23;669;-76
2023/01/27 02:08:58;;;;;;;;;;;;;;;12.43;69.63;102291.59;1259848;23;797;-76
2023/01/27 02:09:49;;;;;;;;;;;;;;;12.43;70.02;102286.25;1260011;23;630;-76
2023/01/27 02:10:39;;;;;;;;;;;;;;;12.43;70.17;102283.56;1259866;23;622;-76
2023/01/27 02:11:30;;;;;;;;;;;;;;;12.43;70.15;102286.25;1259899;23;662;-76
2023/01/27 02:12:20;;;;;;;;;;;;;;;12.39;69.61;102282.84;1260042;23;603;-76
2023/01/27 02:13:11;;;;;;;;;;;;;;;12.38;69.25;102288.28;1259247;23;595;-76
2023/01/27 02:14:01;;;;;;;;;;;;;;;12.37;69.74;102284.75;1261531;23;610;-76
2023/01/27 02:14:51;;;;;;;;;;;;;;;12.37;69.77;102287.41;1259818;23;650;-76
2023/01/27 02:15:42;;;;;;;;;;;;;;;12.39;70.26;102290.00;1259952;23;689;-76
2023/01/27 02:16:32;;;;;;;;;;;;;;;12.39;70.15;102290.88;1260160;23;650;-76
2023/01/27 02:17:23;;;;;;;;;;;;;;;12.40;69.35;102291.75;1259890;23;626;-75
2023/01/27 02:18:13;;;;;;;;;;;;;;;12.39;69.38;102288.22;1260022;23;685;-77
2023/01/27 02:19:04;;;;;;;;;;;;;;;12.41;69.37;102293.47;1261644;23;646;-77
2023/01/27 02:19:54;;;;;;;;;;;;;;;12.41;70.21;102298.81;1260152;23;604;-78
2023/01/27 02:20:45;;;;;;;;;;;;;;;12.41;69.67;102298.81;1259890;23;616;-77
2023/01/27 02:21:35;;;;;;;;;;;;;;;12.37;69.88;102292.75;1261633;23;630;-77
2023/01/27 02:22:26;;;;;;;;;;;;;;;12.39;69.77;102300.72;1261542;23;633;-77
2023/01/27 02:23:16;;;;;;;;;;;;;;;12.40;69.39;102297.09;1261649;23;672;-77
2023/01/27 02:24:11;;;;;;;;;;;;;;;12.38;69.46;102296.28;1259925;23;647;-77
2023/01/27 02:25:01;;;;;;;;;;;;;;;12.37;70.14;102297.25;1261740;23;615;-77
2023/01/27 02:25:51;;;;;;;;;;;;;;;12.39;69.79;102303.38;1259888;23;653;-77
2023/01/27 02:26:42;;;;;;;;;;;;;;;12.38;69.74;102293.63;1260083;23;649;-77
2023/01/27 02:27:33;;;;;;;;;;;;;;;12.38;69.20;102293.63;1261119;23;634;-76
2023/01/27 02:28:23;;;;;;;;;;;;;;;12.36;69.92;102292.88;1260012;23;670;-78
2023/01/27 02:29:13;;;;;;;;;;;;;;;12.35;69.50;102300.00;1259730;23;654;-77
2023/01/27 02:30:04;;;;;;;;;;;;;;;12.36;70.03;102298.22;1259863;23;662;-77
2023/01/27 02:30:54;;;;;;;;;;;;;;;12.36;70.18;102290.19;1261469;23;638;-77
2023/01/27 02:31:45;;;;;;;;;;;;;;;12.37;69.97;102291.88;1259866;23;642;-77
2023/01/27 02:32:35;;;;;;;;;;;;;;;12.37;70.26;102297.25;1261632;23;611;-77
2023/01/27 02:33:25;;;;;;;;;;;;;;;12.34;69.70;102302.75;1259782;23;591;-77
2023/01/27 02:34:16;;;;;;;;;;;;;;;12.34;69.44;102297.41;1255205;23;673;-77
2023/01/27 02:35:06;;;;;;;;;;;;;;;12.36;69.37;102295.53;1255199;23;658;-77
2023/01/27 02:35:57;;;;;;;;;;;;;;;12.34;69.66;102292.06;1254950;23;623;-77
2023/01/27 02:36:48;;;;;;;;;;;;;;;12.34;69.66;102295.59;1253353;23;678;-76
2023/01/27 02:37:38;;;;;;;;;;;;;;;12.36;70.29;102295.53;1253065;23;658;-76
2023/01/27 02:38:29;;;;;;;;;;;;;;;12.36;70.24;102290.19;1254805;23;654;-77
2023/01/27 02:39:19;;;;;;;;;;;;;;;12.36;69.58;102287.53;1254770;23;608;-75
2023/01/27 02:40:10;;;;;;;;;;;;;;;12.36;70.21;102300.88;1254785;23;610;-74
2023/01/27 02:41:00;;;;;;;;;;;;;;;12.36;69.33;102298.22;1254893;23;630;-74
2023/01/27 02:41:51;;;;;;;;;;;;;;;12.34;69.92;102303.63;1252597;23;635;-74
2023/01/27 02:42:41;;;;;;;;;;;;;;;12.35;69.40;102305.38;1254840;23;637;-74
2023/01/27 02:43:31;;;;;;;;;;;;;;;12.35;69.94;102305.38;1254657;23;1961;-74
2023/01/27 02:44:22;;;;;;;;;;;;;;;12.36;69.26;102306.22;1254755;23;614;-74
2023/01/27 02:45:12;;;;;;;;;;;;;;;12.36;70.16;102311.56;1254826;23;599;-73
2023/01/27 02:46:03;;;;;;;;;;;;;;;12.34;69.46;102308.97;1254793;23;682;-74
2023/01/27 02:46:53;;;;;;;;;;;;;;;12.34;69.70;102306.31;1254792;23;673;-74
2023/01/27 02:47:43;;;;;;;;;;;;;;;12.34;69.38;102313.47;1254590;23;572;-74
2023/01/27 02:48:34;;;;;;;;;;;;;;;12.32;70.30;102310.00;1254811;23;689;-74
2023/01/27 02:49:24;;;;;;;;;;;;;;;12.32;69.63;102305.50;1254776;23;607;-74
2023/01/27 02:50:15;;;;;;;;;;;;;;;12.33;69.41;102314.41;1254811;23;650;-74
2023/01/27 02:51:05;;;;;;;;;;;;;;;12.31;69.66;102309.13;1254963;23;626;-74
2023/01/27 02:51:56;;;;;;;;;;;;;;;12.32;70.10;102310.84;1254712;23;728;-74
2023/01/27 02:52:46;;;;;;;;;;;;;;;12.32;69.84;102315.34;1253294;23;631;-74
2023/01/27 02:53:37;;;;;;;;;;;;;;;12.32;70.12;102315.34;1254724;23;650;-74
2023/01/27 02:54:27;;;;;;;;;;;;;;;12.32;69.90;102315.34;1253359;23;626;-74
2023/01/27 02:55:18;;;;;;;;;;;;;;;12.31;69.95;102316.28;1255182;23;657;-75
2023/01/27 02:56:08;;;;;;;;;;;;;;;12.31;69.51;102319.81;1255412;23;722;-75
2023/01/27 02:56:59;;;;;;;;;;;;;;;12.32;70.21;102318.88;1254606;23;610;-75
2023/01/27 02:57:49;;;;;;;;;;;;;;;12.31;69.49;102318.94;1254856;23;618;-74
2023/01/27 02:58:40;;;;;;;;;;;;;;;12.32;70.33;102315.34;1254663;23;602;-74
2023/01/27 02:59:30;;;;;;;;;;;;;;;12.33;69.48;102319.75;1254861;23;634;-75
2023/01/27 03:00:20;;;;;;;;;;;;;;;12.31;69.51;102317.13;1252883;23;623;-75
2023/01/27 03:01:11;;;;;;;;;;;;;;;12.31;69.53;102326.97;1253543;23;649;-75
2023/01/27 03:02:02;;;;;;;;;;;;;;;12.31;70.13;102324.28;1255180;23;645;-74
2023/01/27 03:02:53;;;;;;;;;;;;;;;12.30;70.39;102320.75;1255621;23;626;-74
2023/01/27 03:03:46;;;;;;;;;;;;;;;12.30;70.43;102319.88;1254741;23;1889;-74
2023/01/27 03:04:37;;;;;;;;;;;;;;;12.30;70.11;102326.09;1254767;23;633;-74
2023/01/27 03:05:28;;;;;;;;;;;;;;;12.30;69.37;102323.44;1254694;23;603;-74
2023/01/27 03:06:18;;;;;;;;;;;;;;;12.30;69.82;102330.56;1255038;23;638;-75
2023/01/27 03:07:08;;;;;;;;;;;;;;;12.30;69.39;102327.91;1254647;23;638;-74
2023/01/27 03:07:59;;;;;;;;;;;;;;;12.30;70.31;102326.09;1254694;23;813;-74
2023/01/27 03:08:49;;;;;;;;;;;;;;;12.30;70.17;102335.91;1254592;23;650;-74
2023/01/27 03:09:40;;;;;;;;;;;;;;;12.30;70.22;102327.91;1254761;23;642;-74
2023/01/27 03:10:30;;;;;;;;;;;;;;;12.28;70.12;102324.44;1254782;23;614;-75
2023/01/27 03:12:22;;;;;;;;;;;;;;;12.28;70.38;102329.78;1254711;23;614;-74
2023/01/27 03:12:41;;;;;;;;;;;;;;;12.25;69.51;102329.91;1253784;23;1102;-74
2023/01/27 03:13:31;;;;;;;;;;;;;;;12.26;70.12;102332.53;1253235;23;673;-74
2023/01/27 03:18:58;;;;;;;;;;;;;;;12.28;70.32;102329.78;1255566;23;589;-74
2023/01/27 03:19:52;;;;;;;;;;;;;;;12.25;69.51;102329.91;1254663;23;630;-74
2023/01/27 03:20:42;;;;;;;;;;;;;;;12.26;69.91;102326.31;1254838;23;614;-74
2023/01/27 03:21:33;;;;;;;;;;;;;;;12.25;70.07;102325.44;1254704;23;781;-74
2023/01/27 03:22:23;;;;;;;;;;;;;;;12.25;69.55;102319.22;1253086;23;681;-74
2023/01/27 03:23:13;;;;;;;;;;;;;;;12.26;69.51;102323.63;1255470;23;680;-74
2023/01/27 03:24:04;;;;;;;;;;;;;;;12.28;69.58;102330.66;1254724;23;634;-74
2023/01/27 03:24:54;;;;;;;;;;;;;;;12.25;69.53;102330.78;1254742;23;604;-74
2023/01/27 03:25:45;;;;;;;;;;;;;;;12.25;69.87;102319.22;1254263;23;630;-74
2023/01/27 03:26:37;;;;;;;;;;;;;;;12.28;69.48;102324.44;1254756;23;645;-74
2023/01/27 03:27:27;;;;;;;;;;;;;;;12.25;69.28;102319.22;1254846;23;642;-74
2023/01/27 03:28:18;;;;;;;;;;;;;;;12.26;69.51;102320.97;1254539;23;637;-73
2023/01/27 03:30:17;;;;;;;;;;;;;;;12.27;69.64;102334.25;1255464;23;618;-73
2023/01/27 03:31:07;;;;;;;;;;;;;;;12.28;70.26;102325.31;1254708;23;637;-73
2023/01/27 03:31:58;;;;;;;;;;;;;;;12.26;70.25;102327.19;1254712;23;639;-73
2023/01/27 03:32:48;;;;;;;;;;;;;;;12.25;70.36;102324.56;1254821;23;610;-73
2023/01/27 03:33:42;;;;;;;;;;;;;;;12.28;69.27;102327.09;1254671;23;641;-73
2023/01/27 03:34:32;;;;;;;;;;;;;;;12.28;69.52;102336.00;1254734;23;633;-73
2023/01/27 03:35:22;;;;;;;;;;;;;;;12.27;69.77;102323.56;1257400;23;1065;-73
2023/01/27 03:46:36;;;;;;;;;;;;;;;12.22;69.32;102338.94;1261557;23;618;-74
2023/01/27 03:47:27;;;;;;;;;;;;;;;12.22;69.85;102346.09;1259606;23;670;-75
2023/01/27 03:48:19;;;;;;;;;;;;;;;12.22;70.11;102348.78;1259613;23;670;-74
2023/01/27 03:49:10;;;;;;;;;;;;;;;12.22;69.62;102351.44;1261351;23;606;-74
2023/01/27 03:50:00;;;;;;;;;;;;;;;12.20;70.31;102347.97;1259796;23;634;-73
2023/01/27 03:50:53;;;;;;;;;;;;;;;12.21;69.65;102349.72;1261454;23;594;-74
2023/01/27 03:51:44;;;;;;;;;;;;;;;12.22;69.79;102346.97;1259779;23;583;-75
2023/01/27 03:52:34;;;;;;;;;;;;;;;12.25;69.26;102351.31;1261524;23;653;-74
2023/01/27 03:53:25;;;;;;;;;;;;;;;12.24;69.66;102345.09;1259639;23;662;-74
2023/01/27 03:54:15;;;;;;;;;;;;;;;12.24;69.58;102344.22;1259252;23;682;-74
2023/01/27 03:55:08;;;;;;;;;;;;;;;12.22;70.23;102354.97;1260418;23;696;-75
2023/01/27 03:55:58;;;;;;;;;;;;;;;12.23;70.06;102348.69;1261460;23;677;-75
2023/01/27 03:56:49;;;;;;;;;;;;;;;12.21;69.45;102355.06;1259684;23;615;-75
2023/01/27 03:57:39;;;;;;;;;;;;;;;12.23;70.08;102355.84;1261348;23;590;-75
2023/01/27 03:58:30;;;;;;;;;;;;;;;12.23;69.60;102358.53;1255037;23;796;-76
2023/01/27 03:59:20;;;;;;;;;;;;;;;12.24;70.11;102354.91;1254972;23;744;-76
2023/01/27 04:00:10;;;;;;;;;;;;;;;12.21;69.38;102355.06;1261360;23;934;-76
2023/01/27 04:01:01;;;;;;;;;;;;;;;12.19;69.89;102357.81;1261363;23;603;-76
2023/01/27 04:01:51;;;;;;;;;;;;;;;12.18;69.51;102356.94;1259869;23;653;-75
2023/01/27 04:07:19;;;;;;;;;;;;;;;12.22;69.37;102357.66;1261343;23;669;-75
2023/01/27 04:08:09;;;;;;;;;;;;;;;12.21;69.45;102363.06;1261194;23;638;-75
2023/01/27 04:09:00;;;;;;;;;;;;;;;12.18;69.65;102359.59;1258947;23;615;-75
2023/01/27 04:09:50;;;;;;;;;;;;;;;12.19;69.73;102357.81;1259680;23;637;-74
2023/01/27 04:11:53;;;;;;;;;;;;;;;12.18;69.40;102367.63;1261366;23;602;-74
2023/01/27 04:11:54;;;;;;;;;;;;;;;12.18;69.43;102361.44;1261284;23;645;-75
2023/01/27 04:12:44;;;;;;;;;;;;;;;12.20;69.70;102364.00;1259885;23;639;-74
2023/01/27 04:13:35;;;;;;;;;;;;;;;12.19;69.90;102360.47;1259568;23;650;-73
2023/01/27 04:14:25;;;;;;;;;;;;;;;12.18;69.90;102364.13;1261417;23;610;-73
2023/01/27 04:15:16;;;;;;;;;;;;;;;12.16;70.14;102364.19;1261387;23;598;-74
2023/01/27 04:16:06;;;;;;;;;;;;;;;12.15;70.26;102362.44;1259875;23;626;-73
2023/01/27 04:16:57;;;;;;;;;;;;;;;12.16;69.40;102361.50;1259499;23;648;-74
2023/01/27 04:17:47;;;;;;;;;;;;;;;12.18;69.32;102355.22;1259901;23;670;-74
2023/01/27 04:18:37;;;;;;;;;;;;;;;12.18;69.97;102365.91;1259449;23;632;-74
2023/01/27 04:19:28;;;;;;;;;;;;;;;12.18;69.99;102364.13;1259707;23;715;-74
2023/01/27 04:20:18;;;;;;;;;;;;;;;12.20;69.57;102364.00;1259815;23;846;-74
2023/01/27 04:21:09;;;;;;;;;;;;;;;12.18;70.30;102357.91;1261308;23;649;-74
2023/01/27 04:21:59;;;;;;;;;;;;;;;12.16;69.79;102361.50;1259933;23;642;-74
2023/01/27 04:22:50;;;;;;;;;;;;;;;12.16;69.43;102363.31;1259586;23;666;-74
2023/01/27 04:23:40;;;;;;;;;;;;;;;12.17;70.11;102365.06;1259105;23;1940;-74
2023/01/27 04:24:31;;;;;;;;;;;;;;;12.17;70.22;102362.38;1259434;23;721;-74
2023/01/27 04:25:21;;;;;;;;;;;;;;;12.19;70.04;102363.16;1261376;23;637;-74
2023/01/27 04:26:11;;;;;;;;;;;;;;;12.16;69.89;102364.19;1259924;23;607;-74
2023/01/27 04:27:02;;;;;;;;;;;;;;;12.16;70.14;102366.00;1261306;23;642;-75
2023/01/27 04:27:52;;;;;;;;;;;;;;;12.15;69.46;102362.44;1259946;23;611;-75
2023/01/27 04:28:43;;;;;;;;;;;;;;;12.15;70.00;102362.44;1259594;23;607;-74
2023/01/27 04:29:33;;;;;;;;;;;;;;;12.14;70.06;102360.72;1261335;23;653;-74
2023/01/27 04:30:24;;;;;;;;;;;;;;;12.14;70.30;102362.53;1259611;23;619;-76
2023/01/27 04:31:14;;;;;;;;;;;;;;;12.15;69.72;102372.28;1255033;23;673;-74
2023/01/27 04:32:05;;;;;;;;;;;;;;;12.15;69.90;102374.94;1254929;23;645;-74
2023/01/27 04:32:55;;;;;;;;;;;;;;;12.15;69.44;102367.78;1260468;23;634;-74
2023/01/27 04:33:46;;;;;;;;;;;;;;;12.13;69.67;102375.00;1261188;23;666;-76
2023/01/27 04:34:36;;;;;;;;;;;;;;;12.14;69.35;102370.53;1259780;23;642;-75
2023/01/27 04:35:27;;;;;;;;;;;;;;;12.12;69.48;102375.94;1259390;23;1009;-75
2023/01/27 04:36:17;;;;;;;;;;;;;;;12.13;70.22;102380.34;1261224;23;633;-75
2023/01/27 04:37:08;;;;;;;;;;;;;;;12.13;69.61;102372.34;1261374;23;747;-75
2023/01/27 04:37:58;;;;;;;;;;;;;;;12.11;69.79;102376.88;1259042;23;619;-75
2023/01/27 04:38:48;;;;;;;;;;;;;;;12.12;70.37;102372.41;1259876;23;603;-77
2023/01/27 04:39:40;;;;;;;;;;;;;;;12.13;69.43;102377.69;1259599;23;568;-77
2023/01/27 04:40:31;;;;;;;;;;;;;;;12.14;69.68;102381.22;1261383;23;650;-77
2023/01/27 04:41:21;;;;;;;;;;;;;;;12.14;70.11;102382.09;1259692;23;654;-76
2023/01/27 04:42:12;;;;;;;;;;;;;;;12.13;69.93;102374.16;1261268;23;598;-76
2023/01/27 04:43:02;;;;;;;;;;;;;;;12.14;69.75;102373.22;1259679;23;654;-76
2023/01/27 04:43:52;;;;;;;;;;;;;;;12.12;69.72;102373.28;1259346;23;1941;-76
2023/01/27 04:44:43;;;;;;;;;;;;;;;12.14;69.40;102365.19;1259685;23;677;-77
2023/01/27 04:45:33;;;;;;;;;;;;;;;12.14;70.11;102374.06;1259745;23;611;-77
2023/01/27 04:46:24;;;;;;;;;;;;;;;12.12;69.89;102372.41;1261247;23;670;-76
2023/01/27 04:47:14;;;;;;;;;;;;;;;12.14;69.38;102371.41;1261323;23;684;-76
2023/01/27 04:48:07;;;;;;;;;;;;;;;12.13;69.80;102374.16;1259399;23;587;-76
2023/01/27 04:48:58;;;;;;;;;;;;;;;12.13;69.57;102376.81;1259532;23;659;-76
2023/01/27 04:49:48;;;;;;;;;;;;;;;12.13;70.01;102377.69;1259864;23;697;-75
2023/01/27 04:50:39;;;;;;;;;;;;;;;12.12;70.29;102373.28;1259493;23;642;-75
2023/01/27 04:51:29;;;;;;;;;;;;;;;12.11;70.24;102371.53;1261328;23;618;-75
2023/01/27 04:52:19;;;;;;;;;;;;;;;12.10;69.41;102375.16;1259289;23;670;-75
2023/01/27 04:53:10;;;;;;;;;;;;;;;12.10;69.96;102377.81;1259550;23;674;-75
2023/01/27 04:54:02;;;;;;;;;;;;;;;12.10;69.62;102374.28;1259790;23;631;-75
2023/01/27 04:54:53;;;;;;;;;;;;;;;12.10;69.63;102374.28;1261457;23;612;-75
2023/01/27 04:55:43;;;;;;;;;;;;;;;12.10;69.47;102379.63;1255003;23;630;-75
2023/01/27 04:56:33;;;;;;;;;;;;;;;12.12;69.43;102383.09;1255133;23;681;-76
2023/01/27 04:57:25;;;;;;;;;;;;;;;12.11;69.83;102382.22;1260397;23;581;-75
2023/01/27 04:58:16;;;;;;;;;;;;;;;12.12;69.78;102386.63;1261327;23;669;-75
2023/01/27 04:59:07;;;;;;;;;;;;;;;12.11;70.09;102384.03;1261299;23;606;-75
2023/01/27 04:59:57;;;;;;;;;;;;;;;12.12;69.87;102378.63;1259783;23;779;-75